sensor_id;sensor_type;location;lat;lon;timestamp;pressure;altitude;pressure_sealevel;temperature;humidity
48053;BME280;33824;51.600;5.718;2023-07-31T00:00:05;100883.94;;;16.79;100.00
48053;BME280;33824;51.600;5.718;2023-07-31T00:02:31;100872.75;;;16.82;100.00
48053;BME280;33824;51.600;5.718;2023-07-31T00:04:56;100872.13;;;16.80;100.00
48053;BME280;33824;51.600;5.718;2023-07-31T00:07:22;100869.84;;;16.84;100.00
48053;BME280;33824;51.600;5.718;2023-07-31T00:09:47;100865.03;;;16.92;100.00
48053;BME280;33824;51.600;5.718;2023-07-31T00:12:13;100866.47;;;16.95;100.00
48053;BME280;33824;51.600;5.718;2023-07-31T00:14:38;100878.69;;;16.97;100.00
48053;BME280;33824;51.600;5.718;2023-07-31T00:17:04;100875.34;;;17.02;100.00
48053;BME280;33824;51.600;5.718;2023-07-31T00:19:30;100877.19;;;17.08;100.00
48053;BME280;33824;51.600;5.718;2023-07-31T00:21:55;100867.22;;;17.08;100.00
48053;BME280;33824;51.600;5.718;2023-07-31T00:24:21;100864.97;;;17.05;100.00
48053;BME280;33824;51.600;5.718;2023-07-31T00:26:46;100876.97;;;17.09;100.00
48053;BME280;33824;51.600;5.718;2023-07-31T00:29:12;100863.72;;;17.08;100.00
48053;BME280;33824;51.600;5.718;2023-07-31T00:31:37;100863.88;;;17.13;100.00
48053;BME280;33824;51.600;5.718;2023-07-31T00:34:03;100868.25;;;17.14;100.00
48053;BME280;33824;51.600;5.718;2023-07-31T00:36:28;100868.69;;;17.11;100.00
48053;BME280;33824;51.600;5.718;2023-07-31T00:38:54;100868.44;;;17.12;100.00
48053;BME280;33824;51.600;5.718;2023-07-31T00:41:19;100862.84;;;17.14;100.00
48053;BME280;33824;51.600;5.718;2023-07-31T00:43:45;100859.28;;;17.20;100.00
48053;BME280;33824;51.600;5.718;2023-07-31T00:46:10;100857.41;;;17.20;100.00
48053;BME280;33824;51.600;5.718;2023-07-31T00:48:38;100853.09;;;17.19;100.00
48053;BME280;33824;51.600;5.718;2023-07-31T00:51:04;100867.59;;;17.18;100.00
48053;BME280;33824;51.600;5.718;2023-07-31T00:53:30;100858.69;;;17.18;100.00
48053;BME280;33824;51.600;5.718;2023-07-31T00:55:55;100856.38;;;17.21;100.00
48053;BME280;33824;51.600;5.718;2023-07-31T00:58:21;100855.53;;;17.21;100.00
48053;BME280;33824;51.600;5.718;2023-07-31T01:00:47;100853.09;;;17.19;100.00
48053;BME280;33824;51.600;5.718;2023-07-31T01:03:12;100841.63;;;17.24;100.00
48053;BME280;33824;51.600;5.718;2023-07-31T01:06:02;100842.00;;;17.03;100.00
48053;BME280;33824;51.600;5.718;2023-07-31T01:08:53;100841.59;;;16.99;100.00
48053;BME280;33824;51.600;5.718;2023-07-31T01:11:29;100843.81;;;17.09;100.00
48053;BME280;33824;51.600;5.718;2023-07-31T01:13:56;100840.22;;;17.21;100.00
48053;BME280;33824;51.600;5.718;2023-07-31T01:16:22;100833.56;;;17.24;100.00
48053;BME280;33824;51.600;5.718;2023-07-31T01:18:47;100841.44;;;17.25;100.00
48053;BME280;33824;51.600;5.718;2023-07-31T01:26:30;100834.22;;;17.19;100.00
48053;BME280;33824;51.600;5.718;2023-07-31T01:29:24;100836.66;;;16.96;100.00
48053;BME280;33824;51.600;5.718;2023-07-31T01:31:53;100836.69;;;17.21;100.00
48053;BME280;33824;51.600;5.718;2023-07-31T01:34:21;100842.03;;;17.27;100.00
48053;BME280;33824;51.600;5.718;2023-07-31T01:36:47;100836.44;;;17.29;100.00
48053;BME280;33824;51.600;5.718;2023-07-31T01:39:13;100827.34;;;17.23;100.00
48053;BME280;33824;51.600;5.718;2023-07-31T01:41:40;100831.47;;;17.26;100.00
48053;BME280;33824;51.600;5.718;2023-07-31T01:44:06;100834.38;;;17.24;100.00
48053;BME280;33824;51.600;5.718;2023-07-31T01:46:31;100830.03;;;17.23;100.00
48053;BME280;33824;51.600;5.718;2023-07-31T01:48:57;100828.13;;;17.31;100.00
48053;BME280;33824;51.600;5.718;2023-07-31T01:51:22;100830.66;;;17.25;100.00
48053;BME280;33824;51.600;5.718;2023-07-31T01:53:48;100822.75;;;17.31;100.00
48053;BME280;33824;51.600;5.718;2023-07-31T01:56:13;100827.75;;;17.27;100.00
48053;BME280;33824;51.600;5.718;2023-07-31T01:58:39;100830.22;;;17.28;100.00
48053;BME280;33824;51.600;5.718;2023-07-31T02:01:05;100830.22;;;17.28;100.00
48053;BME280;33824;51.600;5.718;2023-07-31T02:03:30;100825.06;;;17.27;100.00
48053;BME280;33824;51.600;5.718;2023-07-31T02:05:56;100819.66;;;17.27;100.00
48053;BME280;33824;51.600;5.718;2023-07-31T02:08:22;100817.19;;;17.25;100.00
48053;BME280;33824;51.600;5.718;2023-07-31T02:10:47;100818.00;;;17.26;100.00
48053;BME280;33824;51.600;5.718;2023-07-31T02:13:13;100814.47;;;17.25;100.00
48053;BME280;33824;51.600;5.718;2023-07-31T02:15:38;100804.75;;;17.24;100.00
48053;BME280;33824;51.600;5.718;2023-07-31T02:18:04;100810.38;;;17.23;100.00
48053;BME280;33824;51.600;5.718;2023-07-31T02:20:29;100803.75;;;17.19;100.00
48053;BME280;33824;51.600;5.718;2023-07-31T02:22:55;100795.69;;;17.19;100.00
48053;BME280;33824;51.600;5.718;2023-07-31T02:25:20;100799.19;;;17.19;100.00
48053;BME280;33824;51.600;5.718;2023-07-31T02:27:46;100793.81;;;17.19;100.00
48053;BME280;33824;51.600;5.718;2023-07-31T02:30:12;100790.50;;;17.17;100.00
48053;BME280;33824;51.600;5.718;2023-07-31T02:32:37;100801.47;;;17.16;100.00
48053;BME280;33824;51.600;5.718;2023-07-31T02:35:03;100795.06;;;17.17;100.00
48053;BME280;33824;51.600;5.718;2023-07-31T02:37:28;100789.00;;;17.21;100.00
48053;BME280;33824;51.600;5.718;2023-07-31T02:39:55;100789.47;;;17.18;100.00
48053;BME280;33824;51.600;5.718;2023-07-31T02:42:20;100788.69;;;17.11;100.00
48053;BME280;33824;51.600;5.718;2023-07-31T02:44:46;100790.53;;;17.11;100.00
48053;BME280;33824;51.600;5.718;2023-07-31T02:47:11;100793.00;;;17.12;100.00
48053;BME280;33824;51.600;5.718;2023-07-31T02:49:37;100788.00;;;17.16;100.00
48053;BME280;33824;51.600;5.718;2023-07-31T02:52:03;100783.28;;;17.11;100.00
48053;BME280;33824;51.600;5.718;2023-07-31T02:54:28;100786.38;;;17.15;100.00
48053;BME280;33824;51.600;5.718;2023-07-31T02:56:54;100781.00;;;17.15;100.00
48053;BME280;33824;51.600;5.718;2023-07-31T02:59:20;100784.94;;;17.12;100.00
48053;BME280;33824;51.600;5.718;2023-07-31T03:01:45;100778.13;;;17.10;100.00
48053;BME280;33824;51.600;5.718;2023-07-31T03:04:11;100771.06;;;17.09;100.00
48053;BME280;33824;51.600;5.718;2023-07-31T03:06:36;100779.78;;;17.11;100.00
48053;BME280;33824;51.600;5.718;2023-07-31T03:09:02;100766.31;;;17.11;100.00
48053;BME280;33824;51.600;5.718;2023-07-31T03:11:27;100776.63;;;17.14;100.00
48053;BME280;33824;51.600;5.718;2023-07-31T03:13:53;100766.75;;;17.08;100.00
48053;BME280;33824;51.600;5.718;2023-07-31T03:16:19;100779.34;;;17.14;100.00
48053;BME280;33824;51.600;5.718;2023-07-31T03:18:44;100771.69;;;17.11;100.00
48053;BME280;33824;51.600;5.718;2023-07-31T03:21:10;100777.28;;;17.09;100.00
48053;BME280;33824;51.600;5.718;2023-07-31T03:23:35;100777.47;;;17.14;100.00
48053;BME280;33824;51.600;5.718;2023-07-31T03:26:03;100777.53;;;17.08;100.00
48053;BME280;33824;51.600;5.718;2023-07-31T03:28:29;100771.94;;;17.03;100.00
48053;BME280;33824;51.600;5.718;2023-07-31T03:30:55;100769.84;;;17.05;100.00
48053;BME280;33824;51.600;5.718;2023-07-31T03:33:20;100777.66;;;17.13;100.00
48053;BME280;33824;51.600;5.718;2023-07-31T03:35:46;100775.88;;;17.07;100.00
48053;BME280;33824;51.600;5.718;2023-07-31T03:38:12;100765.84;;;17.14;100.00
48053;BME280;33824;51.600;5.718;2023-07-31T03:40:37;100766.44;;;17.16;100.00
48053;BME280;33824;51.600;5.718;2023-07-31T03:43:03;100767.97;;;17.12;100.00
48053;BME280;33824;51.600;5.718;2023-07-31T03:45:28;100755.69;;;17.16;100.00
48053;BME280;33824;51.600;5.718;2023-07-31T03:47:54;100753.16;;;17.21;100.00
48053;BME280;33824;51.600;5.718;2023-07-31T03:50:20;100737.38;;;17.24;100.00
48053;BME280;33824;51.600;5.718;2023-07-31T03:52:46;100746.56;;;17.17;100.00
48053;BME280;33824;51.600;5.718;2023-07-31T03:55:11;100741.78;;;17.19;100.00
48053;BME280;33824;51.600;5.718;2023-07-31T03:57:37;100740.06;;;17.24;100.00
48053;BME280;33824;51.600;5.718;2023-07-31T04:00:03;100736.94;;;17.27;100.00
48053;BME280;33824;51.600;5.718;2023-07-31T04:02:28;100735.25;;;17.33;100.00
48053;BME280;33824;51.600;5.718;2023-07-31T04:04:54;100727.75;;;17.35;100.00
48053;BME280;33824;51.600;5.718;2023-07-31T04:07:20;100727.75;;;17.35;100.00
48053;BME280;33824;51.600;5.718;2023-07-31T04:09:45;100730.69;;;17.34;100.00
48053;BME280;33824;51.600;5.718;2023-07-31T04:12:11;100713.69;;;17.33;100.00
48053;BME280;33824;51.600;5.718;2023-07-31T04:14:37;100733.09;;;17.42;100.00
48053;BME280;33824;51.600;5.718;2023-07-31T04:17:02;100723.94;;;17.43;100.00
48053;BME280;33824;51.600;5.718;2023-07-31T04:19:27;100723.28;;;17.47;100.00
48053;BME280;33824;51.600;5.718;2023-07-31T04:21:53;100725.53;;;17.50;100.00
48053;BME280;33824;51.600;5.718;2023-07-31T04:24:18;100719.09;;;17.51;100.00
48053;BME280;33824;51.600;5.718;2023-07-31T04:26:50;100714.50;;;17.58;100.00
48053;BME280;33824;51.600;5.718;2023-07-31T04:29:15;100714.66;;;17.63;100.00
48053;BME280;33824;51.600;5.718;2023-07-31T04:31:41;100713.75;;;17.69;100.00
48053;BME280;33824;51.600;5.718;2023-07-31T04:34:07;100722.09;;;17.68;100.00
48053;BME280;33824;51.600;5.718;2023-07-31T04:36:33;100721.09;;;17.62;100.00
48053;BME280;33824;51.600;5.718;2023-07-31T04:38:59;100714.22;;;17.66;100.00
48053;BME280;33824;51.600;5.718;2023-07-31T04:41:25;100717.66;;;17.73;100.00
48053;BME280;33824;51.600;5.718;2023-07-31T04:43:50;100716.81;;;17.73;100.00
48053;BME280;33824;51.600;5.718;2023-07-31T04:46:16;100711.22;;;17.74;100.00
48053;BME280;33824;51.600;5.718;2023-07-31T04:48:42;100704.91;;;17.81;100.00
48053;BME280;33824;51.600;5.718;2023-07-31T04:51:09;100710.47;;;17.86;100.00
48053;BME280;33824;51.600;5.718;2023-07-31T04:53:35;100701.19;;;17.82;100.00
48053;BME280;33824;51.600;5.718;2023-07-31T04:56:00;100692.22;;;17.88;100.00
48053;BME280;33824;51.600;5.718;2023-07-31T04:58:26;100695.72;;;17.88;100.00
48053;BME280;33824;51.600;5.718;2023-07-31T05:00:52;100691.97;;;17.89;100.00
48053;BME280;33824;51.600;5.718;2023-07-31T05:03:17;100689.44;;;17.94;100.00
48053;BME280;33824;51.600;5.718;2023-07-31T05:05:43;100687.09;;;17.98;100.00
48053;BME280;33824;51.600;5.718;2023-07-31T05:08:08;100683.41;;;17.92;100.00
48053;BME280;33824;51.600;5.718;2023-07-31T05:10:34;100685.06;;;17.93;100.00
48053;BME280;33824;51.600;5.718;2023-07-31T05:13:00;100679.59;;;18.00;100.00
48053;BME280;33824;51.600;5.718;2023-07-31T05:15:25;100675.84;;;18.01;100.00
48053;BME280;33824;51.600;5.718;2023-07-31T05:17:51;100672.00;;;18.08;100.00
48053;BME280;33824;51.600;5.718;2023-07-31T05:20:16;100671.50;;;18.00;100.00
48053;BME280;33824;51.600;5.718;2023-07-31T05:22:42;100676.38;;;18.09;100.00
48053;BME280;33824;51.600;5.718;2023-07-31T05:25:07;100670.16;;;18.09;100.00
48053;BME280;33824;51.600;5.718;2023-07-31T05:27:33;100663.34;;;18.06;100.00
48053;BME280;33824;51.600;5.718;2023-07-31T05:29:59;100662.97;;;18.03;100.00
48053;BME280;33824;51.600;5.718;2023-07-31T05:32:24;100660.59;;;17.95;100.00
48053;BME280;33824;51.600;5.718;2023-07-31T05:34:53;100667.88;;;17.76;100.00
48053;BME280;33824;51.600;5.718;2023-07-31T05:37:19;100671.81;;;17.73;100.00
48053;BME280;33824;51.600;5.718;2023-07-31T05:39:44;100667.63;;;17.59;100.00
48053;BME280;33824;51.600;5.718;2023-07-31T05:42:10;100663.69;;;17.55;100.00
48053;BME280;33824;51.600;5.718;2023-07-31T05:44:35;100656.66;;;17.54;100.00
48053;BME280;33824;51.600;5.718;2023-07-31T05:47:01;100665.31;;;17.63;100.00
48053;BME280;33824;51.600;5.718;2023-07-31T05:49:26;100657.06;;;17.58;100.00
48053;BME280;33824;51.600;5.718;2023-07-31T05:51:52;100655.84;;;17.54;100.00
48053;BME280;33824;51.600;5.718;2023-07-31T05:54:17;100655.53;;;17.44;100.00
48053;BME280;33824;51.600;5.718;2023-07-31T05:56:43;100658.03;;;17.39;100.00
48053;BME280;33824;51.600;5.718;2023-07-31T05:59:11;100660.16;;;17.37;100.00
48053;BME280;33824;51.600;5.718;2023-07-31T06:01:37;100649.66;;;17.28;100.00
48053;BME280;33824;51.600;5.718;2023-07-31T06:04:03;100643.44;;;17.28;100.00
48053;BME280;33824;51.600;5.718;2023-07-31T06:06:29;100641.81;;;17.27;100.00
48053;BME280;33824;51.600;5.718;2023-07-31T06:08:54;100630.63;;;17.23;100.00
48053;BME280;33824;51.600;5.718;2023-07-31T06:11:20;100634.03;;;17.19;100.00
48053;BME280;33824;51.600;5.718;2023-07-31T06:13:45;100629.22;;;17.21;100.00
48053;BME280;33824;51.600;5.718;2023-07-31T06:16:13;100625.94;;;17.19;100.00
48053;BME280;33824;51.600;5.718;2023-07-31T06:18:39;100629.59;;;17.24;100.00
48053;BME280;33824;51.600;5.718;2023-07-31T06:21:05;100633.31;;;17.23;100.00
48053;BME280;33824;51.600;5.718;2023-07-31T06:23:30;100628.75;;;17.24;100.00
48053;BME280;33824;51.600;5.718;2023-07-31T06:25:56;100629.97;;;17.28;100.00
48053;BME280;33824;51.600;5.718;2023-07-31T06:28:27;100634.16;;;17.24;100.00
48053;BME280;33824;51.600;5.718;2023-07-31T06:30:53;100634.53;;;17.27;100.00
48053;BME280;33824;51.600;5.718;2023-07-31T06:33:18;100630.97;;;17.34;100.00
48053;BME280;33824;51.600;5.718;2023-07-31T06:35:44;100628.28;;;17.34;100.00
48053;BME280;33824;51.600;5.718;2023-07-31T06:38:10;100627.75;;;17.43;100.00
48053;BME280;33824;51.600;5.718;2023-07-31T06:40:36;100619.81;;;17.48;100.00
48053;BME280;33824;51.600;5.718;2023-07-31T06:43:02;100614.25;;;17.43;100.00
48053;BME280;33824;51.600;5.718;2023-07-31T06:45:36;100621.75;;;17.41;100.00
48053;BME280;33824;51.600;5.718;2023-07-31T06:48:03;100611.66;;;17.55;100.00
48053;BME280;33824;51.600;5.718;2023-07-31T06:50:30;100606.44;;;17.60;100.00
48053;BME280;33824;51.600;5.718;2023-07-31T06:52:56;100607.47;;;17.59;100.00
48053;BME280;33824;51.600;5.718;2023-07-31T06:55:23;100598.41;;;17.53;100.00
48053;BME280;33824;51.600;5.718;2023-07-31T06:57:50;100600.03;;;17.54;100.00
48053;BME280;33824;51.600;5.718;2023-07-31T07:00:17;100590.72;;;17.57;100.00
48053;BME280;33824;51.600;5.718;2023-07-31T07:02:42;100595.03;;;17.58;100.00
48053;BME280;33824;51.600;5.718;2023-07-31T07:05:08;100592.34;;;17.58;100.00
48053;BME280;33824;51.600;5.718;2023-07-31T07:07:35;100597.13;;;17.56;100.00
48053;BME280;33824;51.600;5.718;2023-07-31T07:10:00;100595.25;;;17.56;100.00
48053;BME280;33824;51.600;5.718;2023-07-31T07:12:30;100596.38;;;17.49;100.00
48053;BME280;33824;51.600;5.718;2023-07-31T07:14:56;100598.25;;;17.48;100.00
48053;BME280;33824;51.600;5.718;2023-07-31T07:17:23;100586.19;;;17.51;100.00
48053;BME280;33824;51.600;5.718;2023-07-31T07:19:49;100581.88;;;17.50;100.00
48053;BME280;33824;51.600;5.718;2023-07-31T07:22:14;100585.34;;;17.57;100.00
48053;BME280;33824;51.600;5.718;2023-07-31T07:24:40;100580.84;;;17.69;100.00
48053;BME280;33824;51.600;5.718;2023-07-31T07:27:06;100581.06;;;17.67;100.00
48053;BME280;33824;51.600;5.718;2023-07-31T07:29:33;100577.75;;;17.65;100.00
48053;BME280;33824;51.600;5.718;2023-07-31T07:31:59;100575.50;;;17.62;100.00
48053;BME280;33824;51.600;5.718;2023-07-31T07:34:26;100584.19;;;17.64;100.00
48053;BME280;33824;51.600;5.718;2023-07-31T07:36:52;100567.25;;;17.76;100.00
48053;BME280;33824;51.600;5.718;2023-07-31T07:39:18;100571.59;;;17.77;100.00
48053;BME280;33824;51.600;5.718;2023-07-31T07:41:43;100575.19;;;17.70;100.00
48053;BME280;33824;51.600;5.718;2023-07-31T07:44:09;100579.41;;;17.66;100.00
48053;BME280;33824;51.600;5.718;2023-07-31T07:46:34;100586.34;;;17.74;100.00
48053;BME280;33824;51.600;5.718;2023-07-31T07:49:00;100586.22;;;17.69;100.00
48053;BME280;33824;51.600;5.718;2023-07-31T07:51:25;100581.25;;;17.66;100.00
48053;BME280;33824;51.600;5.718;2023-07-31T07:53:51;100573.47;;;17.58;100.00
48053;BME280;33824;51.600;5.718;2023-07-31T07:56:16;100583.84;;;17.61;100.00
48053;BME280;33824;51.600;5.718;2023-07-31T07:58:42;100575.38;;;17.57;100.00
48053;BME280;33824;51.600;5.718;2023-07-31T08:01:08;100580.13;;;17.55;100.00
48053;BME280;33824;51.600;5.718;2023-07-31T08:03:33;100582.22;;;17.53;100.00
48053;BME280;33824;51.600;5.718;2023-07-31T08:06:00;100577.25;;;17.57;100.00
48053;BME280;33824;51.600;5.718;2023-07-31T08:08:25;100570.38;;;17.54;100.00
48053;BME280;33824;51.600;5.718;2023-07-31T08:10:51;100577.66;;;17.54;100.00
48053;BME280;33824;51.600;5.718;2023-07-31T08:13:16;100575.97;;;17.59;100.00
48053;BME280;33824;51.600;5.718;2023-07-31T08:15:42;100566.47;;;17.57;100.00
48053;BME280;33824;51.600;5.718;2023-07-31T08:18:08;100571.97;;;17.62;100.00
48053;BME280;33824;51.600;5.718;2023-07-31T08:20:34;100574.25;;;17.65;100.00
48053;BME280;33824;51.600;5.718;2023-07-31T08:23:00;100567.88;;;17.59;100.00
48053;BME280;33824;51.600;5.718;2023-07-31T08:25:25;100564.88;;;17.67;100.00
48053;BME280;33824;51.600;5.718;2023-07-31T08:27:51;100568.41;;;17.68;100.00
48053;BME280;33824;51.600;5.718;2023-07-31T08:30:19;100557.31;;;17.76;100.00
48053;BME280;33824;51.600;5.718;2023-07-31T08:32:44;100562.75;;;17.88;100.00
48053;BME280;33824;51.600;5.718;2023-07-31T08:35:10;100561.66;;;17.89;100.00
48053;BME280;33824;51.600;5.718;2023-07-31T08:37:35;100565.34;;;17.94;100.00
48053;BME280;33824;51.600;5.718;2023-07-31T08:40:01;100561.31;;;17.85;100.00
48053;BME280;33824;51.600;5.718;2023-07-31T08:42:27;100566.25;;;17.88;100.00
48053;BME280;33824;51.600;5.718;2023-07-31T08:44:54;100571.88;;;17.87;100.00
48053;BME280;33824;51.600;5.718;2023-07-31T08:47:20;100561.66;;;17.89;100.00
48053;BME280;33824;51.600;5.718;2023-07-31T08:49:47;100564.88;;;17.97;100.00
48053;BME280;33824;51.600;5.718;2023-07-31T08:52:13;100564.19;;;18.02;100.00
48053;BME280;33824;51.600;5.718;2023-07-31T08:54:38;100565.03;;;18.02;100.00
48053;BME280;33824;51.600;5.718;2023-07-31T08:57:05;100573.19;;;17.96;100.00
48053;BME280;33824;51.600;5.718;2023-07-31T08:59:34;100565.44;;;17.88;100.00
48053;BME280;33824;51.600;5.718;2023-07-31T09:02:05;100556.06;;;17.90;100.00
48053;BME280;33824;51.600;5.718;2023-07-31T09:04:32;100564.72;;;17.92;100.00
48053;BME280;33824;51.600;5.718;2023-07-31T09:07:00;100568.66;;;17.78;100.00
48053;BME280;33824;51.600;5.718;2023-07-31T09:09:27;100553.63;;;17.70;100.00
48053;BME280;33824;51.600;5.718;2023-07-31T09:11:52;100563.38;;;17.71;100.00
48053;BME280;33824;51.600;5.718;2023-07-31T09:14:19;100556.97;;;17.84;100.00
48053;BME280;33824;51.600;5.718;2023-07-31T09:16:58;100571.22;;;17.73;100.00
48053;BME280;33824;51.600;5.718;2023-07-31T09:19:31;100557.72;;;17.73;100.00
48053;BME280;33824;51.600;5.718;2023-07-31T09:21:59;100558.59;;;17.85;100.00
48053;BME280;33824;51.600;5.718;2023-07-31T09:24:29;100564.09;;;17.79;100.00
48053;BME280;33824;51.600;5.718;2023-07-31T09:26:56;100554.50;;;17.83;100.00
48053;BME280;33824;51.600;5.718;2023-07-31T09:29:24;100551.19;;;17.81;100.00
48053;BME280;33824;51.600;5.718;2023-07-31T09:31:50;100548.19;;;17.89;100.00
48053;BME280;33824;51.600;5.718;2023-07-31T09:34:16;100550.00;;;17.95;100.00
48053;BME280;33824;51.600;5.718;2023-07-31T09:36:49;100537.91;;;17.97;100.00
48053;BME280;33824;51.600;5.718;2023-07-31T09:39:17;100541.25;;;18.11;100.00
48053;BME280;33824;51.600;5.718;2023-07-31T09:41:53;100535.16;;;18.27;100.00
48053;BME280;33824;51.600;5.718;2023-07-31T09:44:19;100534.69;;;18.30;100.00
48053;BME280;33824;51.600;5.718;2023-07-31T09:46:45;100528.88;;;18.45;100.00
48053;BME280;33824;51.600;5.718;2023-07-31T09:49:11;100527.75;;;18.52;100.00
48053;BME280;33824;51.600;5.718;2023-07-31T09:51:42;100528.97;;;18.50;100.00
48053;BME280;33824;51.600;5.718;2023-07-31T09:54:15;100537.72;;;18.52;100.00
48053;BME280;33824;51.600;5.718;2023-07-31T09:56:43;100540.31;;;18.70;100.00
48053;BME280;33824;51.600;5.718;2023-07-31T09:59:17;100537.97;;;18.74;100.00
48053;BME280;33824;51.600;5.718;2023-07-31T10:01:45;100537.97;;;18.97;100.00
48053;BME280;33824;51.600;5.718;2023-07-31T10:04:12;100542.75;;;18.95;100.00
48053;BME280;33824;51.600;5.718;2023-07-31T10:06:39;100533.47;;;19.02;100.00
48053;BME280;33824;51.600;5.718;2023-07-31T10:09:07;100533.94;;;18.99;100.00
48053;BME280;33824;51.600;5.718;2023-07-31T10:11:47;100537.47;;;19.00;100.00
48053;BME280;33824;51.600;5.718;2023-07-31T10:14:20;100535.91;;;19.27;100.00
48053;BME280;33824;51.600;5.718;2023-07-31T10:16:47;100522.84;;;19.36;100.00
48053;BME280;33824;51.600;5.718;2023-07-31T10:19:12;100533.75;;;19.52;100.00
48053;BME280;33824;51.600;5.718;2023-07-31T10:21:38;100531.66;;;19.54;100.00
48053;BME280;33824;51.600;5.718;2023-07-31T10:24:05;100537.66;;;19.45;100.00
48053;BME280;33824;51.600;5.718;2023-07-31T10:26:34;100538.16;;;19.42;100.00
48053;BME280;33824;51.600;5.718;2023-07-31T10:29:01;100530.97;;;19.47;100.00
48053;BME280;33824;51.600;5.718;2023-07-31T10:31:27;100521.06;;;19.53;100.00
48053;BME280;33824;51.600;5.718;2023-07-31T10:33:54;100522.38;;;19.50;100.00
48053;BME280;33824;51.600;5.718;2023-07-31T10:36:21;100520.06;;;19.71;100.00
48053;BME280;33824;51.600;5.718;2023-07-31T10:38:50;100525.91;;;19.79;100.00
48053;BME280;33824;51.600;5.718;2023-07-31T10:41:18;100517.28;;;19.82;100.00
48053;BME280;33824;51.600;5.718;2023-07-31T10:43:46;100521.81;;;19.77;100.00
48053;BME280;33824;51.600;5.718;2023-07-31T10:46:13;100523.97;;;19.91;100.00
48053;BME280;33824;51.600;5.718;2023-07-31T10:48:40;100514.69;;;19.87;100.00
48053;BME280;33824;51.600;5.718;2023-07-31T10:51:10;100509.06;;;20.05;100.00
48053;BME280;33824;51.600;5.718;2023-07-31T10:53:38;100508.34;;;20.10;100.00
48053;BME280;33824;51.600;5.718;2023-07-31T10:56:05;100509.38;;;20.09;100.00
48053;BME280;33824;51.600;5.718;2023-07-31T10:58:31;100504.25;;;20.07;100.00
48053;BME280;33824;51.600;5.718;2023-07-31T11:00:59;100510.88;;;20.00;100.00
48053;BME280;33824;51.600;5.718;2023-07-31T11:03:27;100509.56;;;20.02;100.00
48053;BME280;33824;51.600;5.718;2023-07-31T11:06:05;100493.91;;;20.04;100.00
48053;BME280;33824;51.600;5.718;2023-07-31T11:08:32;100507.50;;;20.09;100.00
48053;BME280;33824;51.600;5.718;2023-07-31T11:13:27;100507.34;;;19.99;100.00
48053;BME280;33824;51.600;5.718;2023-07-31T11:15:52;100500.94;;;20.05;100.00
48053;BME280;33824;51.600;5.718;2023-07-31T11:18:18;100503.25;;;20.13;100.00
48053;BME280;33824;51.600;5.718;2023-07-31T11:20:43;100508.00;;;20.35;100.00
48053;BME280;33824;51.600;5.718;2023-07-31T11:23:10;100518.66;;;20.58;100.00
48053;BME280;33824;51.600;5.718;2023-07-31T11:25:36;100505.13;;;20.58;100.00
48053;BME280;33824;51.600;5.718;2023-07-31T11:28:07;100507.94;;;20.85;100.00
48053;BME280;33824;51.600;5.718;2023-07-31T11:30:33;100491.50;;;20.91;100.00
48053;BME280;33824;51.600;5.718;2023-07-31T11:33:00;100499.69;;;20.96;100.00
48053;BME280;33824;51.600;5.718;2023-07-31T11:35:25;100500.03;;;21.00;100.00
48053;BME280;33824;51.600;5.718;2023-07-31T11:37:51;100495.72;;;21.04;100.00
48053;BME280;33824;51.600;5.718;2023-07-31T11:40:17;100484.09;;;21.03;100.00
48053;BME280;33824;51.600;5.718;2023-07-31T11:42:43;100485.06;;;20.97;100.00
48053;BME280;33824;51.600;5.718;2023-07-31T11:45:09;100491.22;;;20.93;100.00
48053;BME280;33824;51.600;5.718;2023-07-31T11:47:36;100491.91;;;21.00;100.00
48053;BME280;33824;51.600;5.718;2023-07-31T11:50:03;100478.38;;;21.05;100.00
48053;BME280;33824;51.600;5.718;2023-07-31T11:52:31;100483.25;;;21.03;100.00
48053;BME280;33824;51.600;5.718;2023-07-31T11:54:57;100477.47;;;21.16;100.00
48053;BME280;33824;51.600;5.718;2023-07-31T11:57:25;100470.66;;;21.35;100.00
48053;BME280;33824;51.600;5.718;2023-07-31T11:59:51;100457.63;;;21.32;100.00
48053;BME280;33824;51.600;5.718;2023-07-31T12:02:18;100481.84;;;21.17;100.00
48053;BME280;33824;51.600;5.718;2023-07-31T12:04:44;100484.63;;;21.05;100.00
48053;BME280;33824;51.600;5.718;2023-07-31T12:07:10;100464.84;;;21.05;100.00
48053;BME280;33824;51.600;5.718;2023-07-31T12:09:37;100474.09;;;21.09;100.00
48053;BME280;33824;51.600;5.718;2023-07-31T12:12:08;100476.00;;;20.87;100.00
48053;BME280;33824;51.600;5.718;2023-07-31T12:14:33;100474.84;;;20.83;100.00
48053;BME280;33824;51.600;5.718;2023-07-31T12:17:03;100479.84;;;20.91;100.00
48053;BME280;33824;51.600;5.718;2023-07-31T12:19:29;100487.56;;;20.82;100.00
48053;BME280;33824;51.600;5.718;2023-07-31T12:21:59;100489.31;;;20.88;100.00
48053;BME280;33824;51.600;5.718;2023-07-31T12:24:28;100495.13;;;20.80;100.00
48053;BME280;33824;51.600;5.718;2023-07-31T12:26:54;100498.06;;;20.95;100.00
48053;BME280;33824;51.600;5.718;2023-07-31T12:29:20;100490.09;;;20.89;100.00
48053;BME280;33824;51.600;5.718;2023-07-31T12:31:46;100483.38;;;20.91;100.00
48053;BME280;33824;51.600;5.718;2023-07-31T12:34:16;100468.72;;;20.71;100.00
48053;BME280;33824;51.600;5.718;2023-07-31T12:36:43;100462.50;;;20.92;100.00
48053;BME280;33824;51.600;5.718;2023-07-31T12:39:09;100465.44;;;21.07;100.00
48053;BME280;33824;51.600;5.718;2023-07-31T12:41:35;100464.31;;;21.08;100.00
48053;BME280;33824;51.600;5.718;2023-07-31T12:44:01;100460.06;;;21.12;100.00